Main page
METAR-TAF:

METAR-TAF

Airports :

Bahrain, Bahrain

Bahrain International Airport

latitude: 26-16N, longitude: 050-39E, elevation: 2 m

Current weather observation

The report was made 31 minutes ago, at 16:00 UTC
Wind 9 kt from the North/Northwest
Temperature 22°C
Humidity 50%
Pressure 1021 hPa
Visibility 10 km or more
no clouds below 1500 m and no cumulonimbus

METAR: OBBI 241600Z 34009KT CAVOK 22/11 Q1021 NOSIG

Time: 19:31 (16:31 UTC)

Forecast

The report was made 5 hours and 31 minutes ago, at 11:00 UTC
Forecast valid from 24 at 12 UTC to 25 at 18 UTC
Wind 15 kt from the North/Northwest
Visibility 10 km or more
Scattered clouds at a height of 3000 ft

TAF: OBBI 241100Z 2412/2518 34015KT 9999 SCT030

Weather observations and forecasts of more than 4000 airports (METAR and TAF reports).

The available stations are represented by yellow and red dots on the map.

Hover mouse over dot to see the name of the station.

Then click to see weather observations and forecasts.

To change the map : click on the green buttons with a black cross to zoom in, on the green button with a dash to zoom out, or on the green arrows for adjacent maps.


METAR-TAF: